createdAt,value
2022-12-13T00:02:27.820Z,24.67
2022-12-13T00:05:00.279Z,24.30
2022-12-13T00:07:34.849Z,25.20
2022-12-13T00:10:08.105Z,24.95
2022-12-13T00:12:42.131Z,24.35
2022-12-13T00:15:14.675Z,25.10
2022-12-13T00:17:47.185Z,24.43
2022-12-13T00:20:20.060Z,24.40
2022-12-13T00:22:54.049Z,24.12
2022-12-13T00:25:26.490Z,23.25
2022-12-13T00:27:59.032Z,24.00
2022-12-13T00:30:34.742Z,24.37
2022-12-13T00:33:07.630Z,25.10
2022-12-13T00:35:43.575Z,25.23
2022-12-13T00:38:15.915Z,26.85
2022-12-13T00:40:48.752Z,24.20
2022-12-13T00:43:21.256Z,24.87
2022-12-13T00:45:53.793Z,25.12
2022-12-13T00:48:26.255Z,25.32
2022-12-13T00:50:58.849Z,24.52
2022-12-13T00:53:31.375Z,25.50
2022-12-13T00:56:04.681Z,24.90
2022-12-13T00:58:38.616Z,25.48
2022-12-13T01:01:15.783Z,23.20
2022-12-13T01:03:48.210Z,24.92
2022-12-13T01:06:24.385Z,23.80
2022-12-13T01:08:56.936Z,24.18
2022-12-13T01:11:30.108Z,23.35
2022-12-13T01:14:02.686Z,25.68
2022-12-13T01:16:35.249Z,24.92
2022-12-13T01:19:07.844Z,25.72
2022-12-13T01:21:40.348Z,23.55
2022-12-13T01:24:13.485Z,24.60
2022-12-13T01:26:45.967Z,24.90
2022-12-13T01:29:19.837Z,26.37
2022-12-13T01:31:53.023Z,24.50
2022-12-13T01:34:28.517Z,25.85
2022-12-13T01:37:00.896Z,24.77
2022-12-13T01:39:38.025Z,25.15
2022-12-13T01:42:07.675Z,25.17
2022-12-13T01:45:06.391Z,24.55
2022-12-13T01:47:48.752Z,24.12
2022-12-13T01:50:25.851Z,24.32
2022-12-13T01:53:00.243Z,24.45
2022-12-13T01:58:06.016Z,24.90
2022-12-13T02:00:40.860Z,24.63
2022-12-13T02:03:21.388Z,24.75
2022-12-13T02:06:00.541Z,24.02
2022-12-13T02:08:35.951Z,25.45
2022-12-13T02:11:08.073Z,25.43
2022-12-13T02:13:41.388Z,25.25
2022-12-13T02:16:37.694Z,25.43
2022-12-13T02:20:00.176Z,23.67
2022-12-13T02:22:52.764Z,22.82
2022-12-13T02:26:16.586Z,24.95
2022-12-13T02:29:13.156Z,23.73
2022-12-13T02:32:01.707Z,24.37
2022-12-13T02:35:00.957Z,24.35
2022-12-13T02:37:50.272Z,24.50
2022-12-13T02:40:31.605Z,24.23
2022-12-13T02:43:23.132Z,24.57
2022-12-13T02:46:00.889Z,24.02
2022-12-13T02:48:38.389Z,25.92
2022-12-13T02:51:12.188Z,26.12
2022-12-13T02:53:46.509Z,26.85
2022-12-13T02:56:18.973Z,25.50
2022-12-13T02:58:54.517Z,26.48
2022-12-13T03:02:09.734Z,25.05
2022-12-13T03:05:06.255Z,25.70
2022-12-13T03:08:05.008Z,25.95
2022-12-13T03:10:45.828Z,26.07
2022-12-13T03:13:38.213Z,28.02
2022-12-13T03:16:31.157Z,25.35
2022-12-13T03:19:05.847Z,24.60
2022-12-13T03:21:49.746Z,26.35
2022-12-13T03:24:22.793Z,24.93
2022-12-13T03:26:55.113Z,25.43
2022-12-13T03:29:27.475Z,25.62
2022-12-13T03:32:00.317Z,24.40
2022-12-13T03:34:43.742Z,26.93
2022-12-13T03:37:07.057Z,26.80
2022-12-13T03:39:39.790Z,27.60
2022-12-13T03:42:12.252Z,27.07
2022-12-13T03:44:45.193Z,27.32
2022-12-13T03:47:17.666Z,27.73
2022-12-13T03:49:54.121Z,27.22
2022-12-13T03:52:24.887Z,26.50
2022-12-13T03:54:57.701Z,30.43
2022-12-13T03:57:30.054Z,28.75
2022-12-13T04:00:04.553Z,29.70
2022-12-13T04:02:38.882Z,26.62
2022-12-13T04:05:11.487Z,28.70
2022-12-13T04:07:48.257Z,29.40
2022-12-13T04:10:26.296Z,30.25
2022-12-13T04:13:11.484Z,30.85
2022-12-13T04:15:49.227Z,31.52
2022-12-13T04:18:21.827Z,31.30
2022-12-13T04:20:54.437Z,29.05
2022-12-13T04:23:27.893Z,27.53
2022-12-13T04:26:01.087Z,29.32
2022-12-13T04:28:33.794Z,28.17
2022-12-13T04:31:06.552Z,26.75
2022-12-13T04:33:39.174Z,26.33
2022-12-13T04:36:14.644Z,25.68
2022-12-13T04:38:49.006Z,27.15
2022-12-13T04:41:22.036Z,26.40
2022-12-13T04:43:56.169Z,27.95
2022-12-13T04:46:28.841Z,28.75
2022-12-13T04:49:02.065Z,27.40
2022-12-13T04:51:35.025Z,28.27
2022-12-13T04:54:23.860Z,27.95
2022-12-13T04:56:42.792Z,26.95
2022-12-13T04:59:16.268Z,26.25
2022-12-13T05:01:49.082Z,28.23
2022-12-13T05:04:21.460Z,25.60
2022-12-13T05:06:54.094Z,26.37
2022-12-13T05:09:26.782Z,27.42
2022-12-13T05:12:01.533Z,25.37
2022-12-13T05:14:33.687Z,26.25
2022-12-13T05:17:07.189Z,27.30
2022-12-13T05:19:39.637Z,27.23
2022-12-13T05:22:20.847Z,28.32
2022-12-13T05:24:52.675Z,27.50
2022-12-13T05:27:26.882Z,26.85
2022-12-13T05:30:03.700Z,30.15
2022-12-13T05:32:44.005Z,30.00
2022-12-13T05:35:22.443Z,27.52
2022-12-13T05:37:53.333Z,26.40
2022-12-13T05:40:26.487Z,28.17
2022-12-13T05:43:01.658Z,27.02
2022-12-13T05:45:33.576Z,26.35
2022-12-13T05:48:06.505Z,27.52
2022-12-13T05:50:39.648Z,29.07
2022-12-13T05:53:12.626Z,28.45
2022-12-13T05:55:45.384Z,28.52
2022-12-13T05:58:23.261Z,28.35
2022-12-13T06:00:51.834Z,27.87
2022-12-13T06:03:24.442Z,27.80
2022-12-13T06:05:56.849Z,27.42
2022-12-13T06:08:30.222Z,28.70
2022-12-13T06:11:10.662Z,27.52
2022-12-13T06:13:42.318Z,31.90
2022-12-13T06:16:23.479Z,58.08
2022-12-13T06:18:47.802Z,32.60
2022-12-13T06:21:21.888Z,31.73
2022-12-13T06:23:54.412Z,30.68
2022-12-13T06:26:26.733Z,29.90
2022-12-13T06:28:59.584Z,30.40
2022-12-13T06:31:32.083Z,30.17
2022-12-13T06:34:13.776Z,30.62
2022-12-13T06:36:41.009Z,29.70
2022-12-13T06:39:15.169Z,30.50
2022-12-13T06:41:47.570Z,26.82
2022-12-13T06:44:20.020Z,30.57
2022-12-13T06:46:52.500Z,30.52
2022-12-13T06:49:26.861Z,30.30
2022-12-13T06:52:01.375Z,30.57
2022-12-13T06:54:34.128Z,31.42
2022-12-13T06:57:06.556Z,31.52
2022-12-13T06:59:40.070Z,30.85
2022-12-13T07:02:24.489Z,29.35
2022-12-13T07:04:47.028Z,31.55
2022-12-13T07:07:19.503Z,29.20
2022-12-13T07:09:51.986Z,28.55
2022-12-13T07:12:24.972Z,27.32
2022-12-13T07:14:57.698Z,27.30
2022-12-13T07:17:31.969Z,27.93
2022-12-13T07:20:09.361Z,28.05
2022-12-13T07:22:47.851Z,29.27
2022-12-13T07:25:27.926Z,27.70
2022-12-13T07:30:24.124Z,27.40
2022-12-13T07:32:56.619Z,26.52
2022-12-13T07:35:29.786Z,24.70
2022-12-13T07:38:02.331Z,25.95
2022-12-13T07:40:38.671Z,22.90
2022-12-13T07:43:13.144Z,24.60
2022-12-13T07:45:46.613Z,24.35
2022-12-13T07:48:20.286Z,23.20
2022-12-13T07:50:54.755Z,24.53
2022-12-13T07:53:27.081Z,23.32
2022-12-13T07:56:01.139Z,22.93
2022-12-13T07:58:36.799Z,23.52
2022-12-13T08:01:12.236Z,23.38
2022-12-13T08:03:44.672Z,23.20
2022-12-13T08:06:18.885Z,22.48
2022-12-13T08:08:51.961Z,23.87
2022-12-13T08:11:24.642Z,23.47
2022-12-13T08:13:57.848Z,22.73
2022-12-13T08:16:30.772Z,24.25
2022-12-13T08:19:04.534Z,24.47
2022-12-13T08:21:57.826Z,24.75
2022-12-13T08:24:15.867Z,23.65
2022-12-13T08:26:48.526Z,26.70
2022-12-13T08:29:22.819Z,27.65
2022-12-13T08:31:55.595Z,22.80
2022-12-13T08:37:04.233Z,24.40
2022-12-13T08:39:39.029Z,23.98
2022-12-13T08:42:19.845Z,26.10
2022-12-13T08:44:54.122Z,24.63
2022-12-13T08:47:27.852Z,25.90
2022-12-13T08:50:02.251Z,23.95
2022-12-13T08:52:39.801Z,22.73
2022-12-13T08:55:16.816Z,22.75
2022-12-13T08:57:50.192Z,20.62
2022-12-13T09:00:22.877Z,22.05
2022-12-13T09:03:16.923Z,21.30
2022-12-13T09:05:49.474Z,21.83
2022-12-13T09:08:24.320Z,21.68
2022-12-13T09:11:10.486Z,21.97
2022-12-13T09:13:43.190Z,22.35
2022-12-13T09:16:23.383Z,22.25
2022-12-13T09:18:56.495Z,20.80
2022-12-13T09:21:31.697Z,20.12
2022-12-13T09:24:04.515Z,20.97
2022-12-13T09:26:38.797Z,20.62
2022-12-13T09:29:11.968Z,19.02
2022-12-13T09:31:49.632Z,20.75
2022-12-13T09:34:19.327Z,19.90
2022-12-13T09:36:51.787Z,19.37
2022-12-13T09:39:26.052Z,18.85
2022-12-13T09:42:00.910Z,20.48
2022-12-13T09:44:44.042Z,21.25
2022-12-13T09:47:23.174Z,20.92
2022-12-13T09:49:53.614Z,21.87
2022-12-13T09:52:26.371Z,20.68
2022-12-13T09:55:00.645Z,18.42
2022-12-13T09:57:34.441Z,17.25
2022-12-13T10:00:11.765Z,17.40
2022-12-13T10:02:57.467Z,19.12
2022-12-13T10:05:39.456Z,17.55
2022-12-13T10:08:16.950Z,17.37
2022-12-13T10:10:50.872Z,16.25
2022-12-13T10:14:10.602Z,16.82
2022-12-13T10:16:50.219Z,17.77
2022-12-13T10:19:41.202Z,17.42
2022-12-13T10:22:16.546Z,15.93
2022-12-13T10:24:59.808Z,16.15
2022-12-13T10:27:41.932Z,16.37
2022-12-13T10:30:28.712Z,15.88
2022-12-13T10:33:07.406Z,15.78
2022-12-13T10:35:51.685Z,16.55
2022-12-13T10:38:31.901Z,17.07
2022-12-13T10:41:04.699Z,17.07
2022-12-13T10:43:38.351Z,17.20
2022-12-13T10:46:14.700Z,17.25
2022-12-13T10:48:52.337Z,19.15
2022-12-13T10:51:25.020Z,18.10
2022-12-13T10:53:59.564Z,18.32
2022-12-13T10:56:53.650Z,18.02
2022-12-13T10:59:37.837Z,18.67
2022-12-13T11:02:33.333Z,19.25
2022-12-13T11:05:29.827Z,19.25
2022-12-13T11:08:26.632Z,19.30
2022-12-13T11:11:04.703Z,19.40
2022-12-13T11:13:46.642Z,19.45
2022-12-13T11:16:29.205Z,20.02
2022-12-13T11:19:12.107Z,19.45
2022-12-13T11:21:49.234Z,26.20
2022-12-13T11:24:50.433Z,21.10
2022-12-13T11:27:48.656Z,20.95
2022-12-13T11:30:40.670Z,22.25
2022-12-13T11:33:33.002Z,20.68
2022-12-13T11:36:25.399Z,20.02
2022-12-13T11:39:08.711Z,19.10
2022-12-13T11:41:53.361Z,19.35
2022-12-13T11:44:30.768Z,18.20
2022-12-13T11:47:03.857Z,18.40
2022-12-13T11:49:42.464Z,18.75
2022-12-13T11:52:30.209Z,19.12
2022-12-13T11:55:31.348Z,18.60
2022-12-13T11:58:32.600Z,18.27
2022-12-13T12:01:00.101Z,17.30
2022-12-13T12:03:50.139Z,18.73
2022-12-13T12:06:30.776Z,17.95
2022-12-13T12:09:07.352Z,17.35
2022-12-13T12:12:02.604Z,17.00
2022-12-13T12:14:58.157Z,18.23
2022-12-13T12:17:37.852Z,17.90
2022-12-13T12:20:10.069Z,18.32
2022-12-13T12:22:58.480Z,17.55
2022-12-13T12:26:08.041Z,18.32
2022-12-13T12:28:57.344Z,18.30
2022-12-13T12:31:51.048Z,18.42
2022-12-13T12:34:45.529Z,17.20
2022-12-13T12:37:53.707Z,17.05
2022-12-13T12:41:18.053Z,18.00
2022-12-13T12:43:45.148Z,17.67
2022-12-13T12:47:18.050Z,19.15
2022-12-13T12:49:40.353Z,18.00
2022-12-13T12:52:35.433Z,19.07
2022-12-13T12:55:18.451Z,17.98
2022-12-13T12:58:01.519Z,17.27
2022-12-13T13:01:03.136Z,18.40
2022-12-13T13:03:37.977Z,18.07
2022-12-13T13:06:24.619Z,22.25
2022-12-13T13:09:07.637Z,32.30
2022-12-13T13:11:43.260Z,24.50
2022-12-13T13:14:33.919Z,20.20
2022-12-13T13:17:29.154Z,19.20
2022-12-13T13:20:24.367Z,18.75
2022-12-13T13:23:38.975Z,18.12
2022-12-13T13:25:43.956Z,17.73
2022-12-13T13:28:20.242Z,34.65
2022-12-13T13:31:10.174Z,25.43
2022-12-13T13:33:48.625Z,19.32
2022-12-13T13:36:46.761Z,18.67
2022-12-13T13:39:30.769Z,18.85
2022-12-13T13:42:19.232Z,17.85
2022-12-13T13:45:13.275Z,17.45
2022-12-13T13:47:45.619Z,19.60
2022-12-13T13:50:31.656Z,17.55
2022-12-13T13:53:50.180Z,19.17
2022-12-13T13:56:50.046Z,19.87
2022-12-13T13:59:51.645Z,19.20
2022-12-13T14:02:52.043Z,18.42
2022-12-13T14:06:00.207Z,18.92
2022-12-13T14:08:49.960Z,20.27
2022-12-13T14:12:06.186Z,18.17
2022-12-13T14:15:01.898Z,18.30
2022-12-13T14:18:21.493Z,19.65
2022-12-13T14:21:25.697Z,20.25
2022-12-13T14:24:17.597Z,20.35
2022-12-13T14:27:15.498Z,19.50
2022-12-13T14:29:58.705Z,17.48
2022-12-13T14:32:28.806Z,18.65
2022-12-13T14:35:26.260Z,18.42
2022-12-13T14:37:37.968Z,19.45
2022-12-13T14:40:27.235Z,17.98
2022-12-13T14:42:59.664Z,16.32
2022-12-13T14:45:36.751Z,18.27
2022-12-13T14:48:31.712Z,17.07
2022-12-13T14:51:04.941Z,17.07
2022-12-13T14:53:41.758Z,16.87
2022-12-13T14:56:27.637Z,17.35
2022-12-13T14:59:00.068Z,16.40
2022-12-13T15:01:36.656Z,17.73
2022-12-13T15:04:29.628Z,15.08
2022-12-13T15:07:16.103Z,15.80
2022-12-13T15:09:48.553Z,16.52
2022-12-13T15:12:24.540Z,15.80
2022-12-13T15:15:03.548Z,16.50
2022-12-13T15:17:40.866Z,16.42
2022-12-13T15:20:30.862Z,16.02
2022-12-13T15:23:15.835Z,16.73
2022-12-13T15:25:55.175Z,16.62
2022-12-13T15:28:30.579Z,16.27
2022-12-13T15:31:02.936Z,18.12
2022-12-13T15:33:42.546Z,17.42
2022-12-13T15:36:27.259Z,19.45
2022-12-13T15:39:03.043Z,19.23
2022-12-13T15:41:38.053Z,17.75
2022-12-13T15:44:40.278Z,18.20
2022-12-13T15:47:28.513Z,19.52
2022-12-13T15:49:59.370Z,18.62
2022-12-13T15:52:39.766Z,17.73
2022-12-13T15:55:19.479Z,18.95
2022-12-13T15:57:58.794Z,18.00
2022-12-13T16:00:34.540Z,18.52
2022-12-13T16:03:19.315Z,19.20
2022-12-13T16:08:40.744Z,17.30
2022-12-13T16:11:13.049Z,17.35
2022-12-13T16:13:47.539Z,15.88
2022-12-13T16:19:03.017Z,15.55
2022-12-13T16:21:37.184Z,14.87
2022-12-13T16:24:09.887Z,13.90
2022-12-13T16:26:47.296Z,15.15
2022-12-13T16:29:20.067Z,13.95
2022-12-13T16:31:54.891Z,13.78
2022-12-13T16:34:26.707Z,11.53
2022-12-13T16:37:00.719Z,13.58
2022-12-13T16:39:33.232Z,14.30
2022-12-13T16:42:06.199Z,12.43
2022-12-13T16:44:39.538Z,13.88
2022-12-13T16:47:24.399Z,12.90
2022-12-13T16:49:51.159Z,12.90
2022-12-13T16:52:23.586Z,12.75
2022-12-13T16:54:57.590Z,13.58
2022-12-13T16:57:30.005Z,12.88
2022-12-13T17:00:02.299Z,13.30
2022-12-13T17:02:34.909Z,12.35
2022-12-13T17:05:08.070Z,12.85
2022-12-13T17:07:40.430Z,13.88
2022-12-13T17:10:13.820Z,15.08
2022-12-13T17:12:47.920Z,14.73
2022-12-13T17:15:20.545Z,12.85
2022-12-13T17:17:55.377Z,13.83
2022-12-13T17:20:28.049Z,13.15
2022-12-13T17:23:01.652Z,12.43
2022-12-13T17:25:36.072Z,11.90
2022-12-13T17:30:41.314Z,11.60
2022-12-13T17:33:14.493Z,11.85
2022-12-13T17:36:05.292Z,12.37
2022-12-13T17:39:01.520Z,11.93
2022-12-13T17:41:34.010Z,11.30
2022-12-13T17:44:07.048Z,12.65
2022-12-13T17:46:39.860Z,11.10
2022-12-13T17:49:13.082Z,15.38
2022-12-13T17:51:51.442Z,19.77
2022-12-13T17:54:20.055Z,14.75
2022-12-13T17:56:54.569Z,12.33
2022-12-13T17:59:28.132Z,11.65
2022-12-13T18:02:00.612Z,10.68
2022-12-13T18:04:33.002Z,10.10
2022-12-13T18:07:06.340Z,10.38
2022-12-13T18:09:39.144Z,9.40
2022-12-13T18:12:12.582Z,8.93
2022-12-13T18:14:45.138Z,8.08
2022-12-13T18:17:19.366Z,7.97
2022-12-13T18:19:52.291Z,7.67
2022-12-13T18:22:25.673Z,8.68
2022-12-13T18:24:58.324Z,7.08
2022-12-13T18:27:32.362Z,7.65
2022-12-13T18:30:05.068Z,7.30
2022-12-13T18:32:37.737Z,6.53
2022-12-13T18:35:10.340Z,7.08
2022-12-13T18:37:42.810Z,6.65
2022-12-13T18:40:15.282Z,6.35
2022-12-13T18:42:49.301Z,6.33
2022-12-13T18:45:21.682Z,6.05
2022-12-13T18:47:53.998Z,5.78
2022-12-13T18:50:26.463Z,6.05
2022-12-13T18:52:58.933Z,5.55
2022-12-13T18:55:31.748Z,4.85
2022-12-13T19:00:37.656Z,5.20
2022-12-13T19:03:09.962Z,5.22
2022-12-13T19:05:43.031Z,7.28
2022-12-13T19:08:16.396Z,7.13
2022-12-13T19:10:49.847Z,4.90
2022-12-13T19:13:25.275Z,5.50
2022-12-13T19:15:59.548Z,4.72
2022-12-13T19:18:32.286Z,5.35
2022-12-13T19:21:08.502Z,4.60
2022-12-13T19:23:41.408Z,4.72
2022-12-13T19:26:15.452Z,5.08
2022-12-13T19:28:47.877Z,5.28
2022-12-13T19:31:23.058Z,5.28
2022-12-13T19:36:26.297Z,5.47
2022-12-13T19:38:58.768Z,5.08
2022-12-13T19:41:32.454Z,5.08
2022-12-13T19:44:06.536Z,5.45
2022-12-13T19:46:40.097Z,5.20
2022-12-13T19:49:13.088Z,6.20
2022-12-13T19:51:46.766Z,5.83
2022-12-13T19:54:19.308Z,5.50
2022-12-13T19:56:53.365Z,5.55
2022-12-13T19:59:26.163Z,5.12
2022-12-13T20:01:59.023Z,5.40
2022-12-13T20:04:31.580Z,5.70
2022-12-13T20:07:06.495Z,5.42
2022-12-13T20:12:15.727Z,5.55
2022-12-13T20:14:51.082Z,5.55
2022-12-13T20:17:24.598Z,5.72
2022-12-13T20:19:59.449Z,6.37
2022-12-13T20:22:33.873Z,6.55
2022-12-13T20:25:07.251Z,6.33
2022-12-13T20:27:41.880Z,6.92
2022-12-13T20:30:15.212Z,8.25
2022-12-13T20:32:47.546Z,6.83
2022-12-13T20:35:19.998Z,8.38
2022-12-13T20:37:52.723Z,7.90
2022-12-13T20:40:26.429Z,7.53
2022-12-13T20:45:31.557Z,8.00
2022-12-13T20:48:05.358Z,9.28
2022-12-13T20:50:39.450Z,9.08
2022-12-13T20:53:12.047Z,8.38
2022-12-13T20:55:44.503Z,8.00
2022-12-13T20:58:18.840Z,9.05
2022-12-13T21:00:51.351Z,9.18
2022-12-13T21:03:25.381Z,8.83
2022-12-13T21:05:58.197Z,8.58
2022-12-13T21:08:49.016Z,8.73
2022-12-13T21:11:33.970Z,8.85
2022-12-13T21:14:23.314Z,9.43
2022-12-13T21:17:04.636Z,8.48
2022-12-13T21:19:40.454Z,9.18
2022-12-13T21:22:12.886Z,9.33
2022-12-13T21:24:47.087Z,8.98
2022-12-13T21:27:19.948Z,9.15
2022-12-13T21:29:52.466Z,8.58
2022-12-13T21:32:25.109Z,8.50
2022-12-13T21:34:57.801Z,9.03
2022-12-13T21:37:30.770Z,9.50
2022-12-13T21:40:03.410Z,9.45
2022-12-13T21:42:35.931Z,8.68
2022-12-13T21:45:09.278Z,9.28
2022-12-13T21:47:42.142Z,8.40
2022-12-13T21:50:14.993Z,9.25
2022-12-13T21:52:49.740Z,9.58
2022-12-13T21:55:38.836Z,8.98
2022-12-13T21:58:14.985Z,9.53
2022-12-13T22:00:48.817Z,9.48
2022-12-13T22:03:21.587Z,9.95
2022-12-13T22:05:54.068Z,10.48
2022-12-13T22:08:27.358Z,10.35
2022-12-13T22:11:21.285Z,10.90
2022-12-13T22:13:51.770Z,10.65
2022-12-13T22:16:24.849Z,10.70
2022-12-13T22:18:58.844Z,11.18
2022-12-13T22:21:31.795Z,10.63
2022-12-13T22:24:04.819Z,10.43
2022-12-13T22:26:39.121Z,11.18
2022-12-13T22:29:13.459Z,10.18
2022-12-13T22:31:48.813Z,10.58
2022-12-13T22:36:51.790Z,10.13
2022-12-13T22:39:24.909Z,10.03
2022-12-13T22:41:57.243Z,9.60
2022-12-13T22:44:31.390Z,10.48
2022-12-13T22:47:05.261Z,10.18
2022-12-13T22:49:38.083Z,10.10
2022-12-13T22:52:10.380Z,11.05
2022-12-13T22:54:43.172Z,10.75
2022-12-13T22:57:15.461Z,10.35
2022-12-13T22:59:48.022Z,11.38
2022-12-13T23:02:21.229Z,10.28
2022-12-13T23:04:54.214Z,11.85
2022-12-13T23:07:26.999Z,11.53
2022-12-13T23:09:59.548Z,11.38
2022-12-13T23:12:49.990Z,10.55
2022-12-13T23:15:22.378Z,11.10
2022-12-13T23:17:54.851Z,11.28
2022-12-13T23:20:28.181Z,11.20
2022-12-13T23:23:00.611Z,11.03
2022-12-13T23:25:33.266Z,11.33
2022-12-13T23:28:05.610Z,10.23
2022-12-13T23:30:38.429Z,11.57
2022-12-13T23:33:11.029Z,10.68
2022-12-13T23:35:43.428Z,10.43
2022-12-13T23:38:15.927Z,10.75
2022-12-13T23:40:48.393Z,11.88
2022-12-13T23:43:20.872Z,11.10
2022-12-13T23:45:53.655Z,11.03
2022-12-13T23:48:27.159Z,10.35
2022-12-13T23:50:59.999Z,11.63
2022-12-13T23:53:32.927Z,11.08
2022-12-13T23:56:08.446Z,11.48
2022-12-13T23:58:41.877Z,10.60
